Time;durP1;ratioP1;P1;durP2;ratioP2;P2;SDS_P1;SDS_P2;PMS_P1;PMS_P2;Temp;Humidity;BMP_temperature;BMP_pressure;BME280_temperature;BME280_humidity;BME280_pressure;Samples;Min_cycle;Max_cycle;Signal;HPM_P1;HPM_P2
2024/04/23 00:01:36;;;;;;;7.00;5.17;;;1.80;91.30;;;;;;5472603;26;20228;-62
2024/04/23 00:04:01;;;;;;;8.40;5.33;;;1.80;91.00;;;;;;5463775;26;20269;-62
2024/04/23 00:06:27;;;;;;;8.40;5.00;;;1.80;91.40;;;;;;5473861;26;20339;-62
2024/04/23 00:08:53;;;;;;;7.67;4.53;;;1.70;91.20;;;;;;5469695;26;20776;-64
2024/04/23 00:11:18;;;;;;;7.97;5.17;;;1.70;91.50;;;;;;5473344;26;20311;-62
2024/04/23 00:13:44;;;;;;;6.73;4.43;;;1.70;91.20;;;;;;5453388;26;20274;-62
2024/04/23 00:16:09;;;;;;;7.90;5.10;;;1.70;90.90;;;;;;5464561;26;20327;-62
2024/04/23 00:18:35;;;;;;;8.50;4.83;;;1.60;90.70;;;;;;5465325;26;20882;-62
2024/04/23 00:21:01;;;;;;;6.17;4.30;;;1.60;90.90;;;;;;5459048;26;20243;-62
2024/04/23 00:23:26;;;;;;;7.53;4.40;;;1.60;90.50;;;;;;5438043;26;20240;-62
2024/04/23 00:25:52;;;;;;;6.50;4.50;;;1.60;90.60;;;;;;5465231;26;20853;-62
2024/04/23 00:28:18;;;;;;;7.50;4.80;;;1.60;90.10;;;;;;5460314;26;20219;-62
2024/04/23 00:30:43;;;;;;;6.63;5.00;;;1.60;89.50;;;;;;5459029;26;20767;-62
2024/04/23 00:33:09;;;;;;;4.90;4.03;;;1.60;88.50;;;;;;5439002;26;20227;-62
2024/04/23 00:35:35;;;;;;;6.37;4.73;;;1.60;89.50;;;;;;5461172;26;20263;-62
2024/04/23 00:38:01;;;;;;;12.73;5.10;;;1.60;89.60;;;;;;5431207;26;20239;-62
2024/04/23 00:40:30;;;;;;;6.67;4.80;;;1.60;90.10;;;;;;5446962;26;20254;-62
2024/04/23 00:42:57;;;;;;;10.83;5.00;;;1.60;89.50;;;;;;5463107;26;20445;-62
2024/04/23 00:45:26;;;;;;;7.50;5.50;;;1.60;89.90;;;;;;5433163;26;20612;-61
2024/04/23 00:47:52;;;;;;;5.70;4.10;;;1.60;89.10;;;;;;5463588;26;20517;-62
2024/04/23 00:50:17;;;;;;;6.27;4.97;;;1.60;88.30;;;;;;5465416;26;20472;-62
2024/04/23 00:52:44;;;;;;;10.30;4.70;;;1.60;89.20;;;;;;5453388;26;20269;-62
2024/04/23 00:55:11;;;;;;;6.07;4.37;;;1.60;90.00;;;;;;5451955;26;20236;-63
2024/04/23 00:57:37;;;;;;;6.43;4.70;;;1.60;89.70;;;;;;5460507;26;21108;-62
2024/04/23 01:00:03;;;;;;;6.43;4.53;;;1.60;90.40;;;;;;5451989;26;20500;-62
2024/04/23 01:02:29;;;;;;;10.73;4.70;;;1.50;90.60;;;;;;5454434;26;20461;-63
2024/04/23 01:04:55;;;;;;;5.87;4.67;;;1.50;91.20;;;;;;5471237;26;20476;-62
2024/04/23 01:07:20;;;;;;;8.83;5.20;;;1.50;91.10;;;;;;5447065;26;20236;-63
2024/04/23 01:09:46;;;;;;;7.00;4.60;;;1.50;91.10;;;;;;5452220;26;20285;-62
2024/04/23 01:12:12;;;;;;;5.90;4.50;;;1.50;90.80;;;;;;5462033;26;20276;-62
2024/04/23 01:14:41;;;;;;;5.67;4.77;;;1.50;91.10;;;;;;5460945;26;20304;-62
2024/04/23 01:17:07;;;;;;;7.73;5.00;;;1.50;90.40;;;;;;5462446;26;20288;-62
2024/04/23 01:19:54;;;;;;;6.77;5.27;;;1.40;90.20;;;;;;5458818;26;20448;-63
2024/04/23 01:22:50;;;;;;;7.23;4.37;;;1.40;90.30;;;;;;5439227;26;20549;-61
2024/04/23 01:25:22;;;;;;;7.50;4.43;;;1.40;90.70;;;;;;5462483;26;20462;-62
2024/04/23 01:27:48;;;;;;;8.67;4.93;;;1.40;91.00;;;;;;5448900;26;23658;-62
2024/04/23 01:30:16;;;;;;;8.63;5.27;;;1.40;91.70;;;;;;5459400;26;20524;-62
2024/04/23 01:32:45;;;;;;;8.07;5.37;;;1.30;91.30;;;;;;5452731;26;20449;-61
2024/04/23 01:35:12;;;;;;;8.37;4.60;;;1.30;91.50;;;;;;5472574;26;20831;-62
2024/04/23 01:37:41;;;;;;;5.80;4.53;;;1.30;91.90;;;;;;5456556;26;20444;-61
2024/04/23 01:40:09;;;;;;;5.60;4.17;;;1.30;92.30;;;;;;5461712;26;21055;-62
2024/04/23 01:42:36;;;;;;;6.67;5.00;;;1.30;92.20;;;;;;5453664;26;20457;-62
2024/04/23 01:45:02;;;;;;;8.10;4.80;;;1.30;92.30;;;;;;5464345;26;20453;-62
2024/04/23 01:47:28;;;;;;;8.13;5.60;;;1.20;92.90;;;;;;5456388;26;20451;-62
2024/04/23 01:49:54;;;;;;;6.93;4.37;;;1.20;93.80;;;;;;5471178;26;20561;-63
2024/04/23 01:52:20;;;;;;;6.30;5.10;;;1.30;94.70;;;;;;5459749;26;20239;-61
2024/04/23 01:54:46;;;;;;;8.10;5.40;;;1.30;95.20;;;;;;5456961;26;20524;-61
2024/04/23 01:57:11;;;;;;;7.17;4.80;;;1.30;95.90;;;;;;5468844;26;20899;-62
2024/04/23 01:59:46;;;;;;;6.43;4.67;;;1.30;95.10;;;;;;5456477;26;20246;-62
2024/04/23 02:02:12;;;;;;;7.90;4.97;;;1.40;96.10;;;;;;5456544;26;20258;-63
2024/04/23 02:04:38;;;;;;;8.30;4.80;;;1.40;97.20;;;;;;5433214;26;20515;-62
2024/04/23 02:07:04;;;;;;;6.10;4.90;;;1.50;96.70;;;;;;5453023;26;20571;-62
2024/04/23 02:09:30;;;;;;;7.37;5.47;;;1.50;96.00;;;;;;5452324;26;20445;-63
2024/04/23 02:11:56;;;;;;;8.03;5.00;;;1.60;95.90;;;;;;5452534;26;20642;-62
2024/04/23 02:14:22;;;;;;;7.83;4.53;;;1.60;95.30;;;;;;5465438;26;20448;-62
2024/04/23 02:16:48;;;;;;;12.20;5.33;;;1.60;95.20;;;;;;5460750;26;20226;-62
2024/04/23 02:19:13;;;;;;;6.80;5.10;;;1.60;93.70;;;;;;5467360;26;20661;-63
2024/04/23 02:21:39;;;;;;;7.40;5.37;;;1.60;93.00;;;;;;5458506;26;20232;-62
2024/04/23 02:24:04;;;;;;;8.37;5.60;;;1.60;93.30;;;;;;5459236;26;20865;-62
2024/04/23 02:26:30;;;;;;;8.50;5.60;;;1.70;92.70;;;;;;5440034;26;20266;-62
2024/04/23 02:28:56;;;;;;;8.90;5.50;;;1.70;92.60;;;;;;5462753;26;20646;-63
2024/04/23 02:31:21;;;;;;;8.70;5.77;;;1.80;92.50;;;;;;5434094;26;20231;-62
2024/04/23 02:33:47;;;;;;;12.03;5.50;;;1.70;92.10;;;;;;5465447;26;20230;-61
2024/04/23 02:36:13;;;;;;;8.60;5.87;;;1.80;91.40;;;;;;5459950;26;20226;-62
2024/04/23 02:38:38;;;;;;;7.90;5.60;;;1.70;91.20;;;;;;5458207;26;20227;-62
2024/04/23 02:41:04;;;;;;;13.40;5.70;;;1.80;91.40;;;;;;5454691;26;20857;-62
2024/04/23 02:43:29;;;;;;;12.63;6.37;;;1.80;91.10;;;;;;5464269;26;20223;-63
2024/04/23 02:45:55;;;;;;;6.70;5.47;;;1.80;90.60;;;;;;5461688;26;20238;-63
2024/04/23 02:48:21;;;;;;;9.30;5.80;;;1.80;89.80;;;;;;5454201;26;20242;-63
2024/04/23 02:50:46;;;;;;;9.70;6.07;;;1.80;90.00;;;;;;5440048;26;20272;-62
2024/04/23 02:53:12;;;;;;;9.10;6.37;;;1.80;88.30;;;;;;5462377;26;20243;-62
2024/04/23 02:55:37;;;;;;;10.57;6.10;;;1.80;87.90;;;;;;5468470;26;20270;-62
2024/04/23 02:58:03;;;;;;;8.77;6.37;;;1.80;87.70;;;;;;5460050;26;20725;-61
2024/04/23 03:00:29;;;;;;;10.77;6.00;;;1.80;87.60;;;;;;5462062;26;20346;-62
2024/04/23 03:02:54;;;;;;;8.20;6.17;;;1.80;86.40;;;;;;5454802;26;20321;-62
2024/04/23 03:05:20;;;;;;;10.27;6.13;;;1.80;87.80;;;;;;5456868;26;20230;-62
2024/04/23 03:07:45;;;;;;;11.03;6.20;;;1.80;87.90;;;;;;5460105;26;20236;-62
2024/04/23 03:10:11;;;;;;;9.03;6.30;;;1.80;86.80;;;;;;5464307;26;20273;-62
2024/04/23 03:12:36;;;;;;;13.30;6.77;;;1.80;85.10;;;;;;5453344;26;20238;-62
2024/04/23 03:15:02;;;;;;;10.70;7.30;;;1.80;84.40;;;;;;5430576;26;20302;-62
2024/04/23 03:17:28;;;;;;;9.43;5.87;;;1.80;84.00;;;;;;5472601;26;20231;-63
2024/04/23 03:19:53;;;;;;;8.30;6.20;;;1.80;84.70;;;;;;5424405;26;20926;-63
2024/04/23 03:22:19;;;;;;;8.20;5.60;;;1.80;85.20;;;;;;5461559;26;20270;-62
2024/04/23 03:24:45;;;;;;;8.80;5.90;;;1.80;86.10;;;;;;5464144;26;20234;-62
2024/04/23 03:27:10;;;;;;;10.20;7.20;;;1.80;86.20;;;;;;5459432;26;20320;-62
2024/04/23 03:29:36;;;;;;;9.33;6.60;;;1.80;85.80;;;;;;5457651;26;20247;-62
2024/04/23 03:32:04;;;;;;;9.17;6.10;;;1.80;85.70;;;;;;5461410;26;20613;-62
2024/04/23 03:34:32;;;;;;;12.03;6.43;;;1.80;86.70;;;;;;5455705;26;20278;-62
2024/04/23 03:36:58;;;;;;;8.10;6.50;;;1.80;86.10;;;;;;5454374;26;20496;-62
2024/04/23 03:39:25;;;;;;;12.90;7.50;;;1.80;85.10;;;;;;5461922;26;20933;-62
2024/04/23 03:41:58;;;;;;;10.97;6.37;;;1.80;86.10;;;;;;5452740;26;20231;-62
2024/04/23 03:44:25;;;;;;;9.33;6.73;;;1.70;86.90;;;;;;5451234;26;20864;-61
2024/04/23 03:46:51;;;;;;;9.30;6.97;;;1.70;87.40;;;;;;5459336;26;20448;-62
2024/04/23 03:49:17;;;;;;;11.27;6.60;;;1.70;87.90;;;;;;5453201;26;20515;-63
2024/04/23 03:51:42;;;;;;;13.60;7.87;;;1.70;89.30;;;;;;5414441;26;20453;-62
2024/04/23 03:54:08;;;;;;;9.20;6.70;;;1.70;88.50;;;;;;5456205;26;20328;-62
2024/04/23 03:56:34;;;;;;;12.90;7.27;;;1.70;88.60;;;;;;5452426;26;20224;-62
2024/04/23 03:58:59;;;;;;;12.40;7.23;;;1.60;89.40;;;;;;5454736;26;20720;-59
2024/04/23 04:01:25;;;;;;;10.37;6.90;;;1.60;90.50;;;;;;5449163;26;20582;-59
2024/04/23 04:06:34;;;;;;;9.70;6.30;;;1.60;90.00;;;;;;5465282;26;20268;-62
2024/04/23 04:09:00;;;;;;;10.17;7.10;;;1.60;90.00;;;;;;5460297;26;20457;-61
2024/04/23 04:11:31;;;;;;;10.20;7.13;;;1.60;89.30;;;;;;5466830;26;20258;-62
2024/04/23 04:13:58;;;;;;;10.03;6.80;;;1.60;89.20;;;;;;5460401;26;20270;-62
2024/04/23 04:16:23;;;;;;;17.70;6.87;;;1.60;90.10;;;;;;5452700;26;20519;-63
2024/04/23 04:18:49;;;;;;;11.93;7.67;;;1.60;89.70;;;;;;5462587;26;20824;-63
2024/04/23 04:21:15;;;;;;;9.90;7.23;;;1.60;90.20;;;;;;5441962;26;20393;-63
2024/04/23 04:23:40;;;;;;;13.20;7.40;;;1.60;90.00;;;;;;5462081;26;21062;-62
2024/04/23 04:26:10;;;;;;;13.00;7.57;;;1.50;90.60;;;;;;5461823;26;20319;-64
2024/04/23 04:28:36;;;;;;;12.00;7.30;;;1.50;91.20;;;;;;5457460;26;21395;-63
2024/04/23 04:31:01;;;;;;;8.77;6.53;;;1.50;91.40;;;;;;5442741;26;20502;-61
2024/04/23 04:33:27;;;;;;;9.93;7.00;;;1.50;90.90;;;;;;5442930;26;20235;-63
2024/04/23 04:35:53;;;;;;;10.87;7.73;;;1.40;91.40;;;;;;5456621;26;20238;-62
2024/04/23 04:38:18;;;;;;;9.83;7.50;;;1.40;91.60;;;;;;5451219;26;20230;-60
2024/04/23 04:40:44;;;;;;;12.90;8.67;;;1.40;91.50;;;;;;5451292;26;20227;-67
2024/04/23 04:43:09;;;;;;;12.17;8.00;;;1.40;92.40;;;;;;5453650;26;20270;-67
2024/04/23 04:45:35;;;;;;;12.93;8.43;;;1.40;92.90;;;;;;5461117;26;20277;-67
2024/04/23 04:48:00;;;;;;;11.13;7.07;;;1.40;93.20;;;;;;5453433;26;20398;-66
2024/04/23 04:50:26;;;;;;;14.40;7.37;;;1.40;93.40;;;;;;5449577;26;20258;-63
2024/04/23 04:52:51;;;;;;;11.37;7.37;;;1.40;93.20;;;;;;5460674;26;20334;-62
2024/04/23 04:55:17;;;;;;;12.60;8.17;;;1.40;94.20;;;;;;5421331;26;20238;-67
2024/04/23 04:57:43;;;;;;;12.53;8.40;;;1.40;93.80;;;;;;5452522;26;20754;-67
2024/04/23 05:00:08;;;;;;;16.27;8.27;;;1.50;94.10;;;;;;5453671;26;20267;-67
2024/04/23 05:02:34;;;;;;;13.30;8.40;;;1.50;94.00;;;;;;5465925;26;20573;-68
2024/04/23 05:05:00;;;;;;;15.13;8.20;;;1.60;94.40;;;;;;5452247;26;20571;-67
2024/04/23 05:07:25;;;;;;;13.87;8.10;;;1.60;93.90;;;;;;5473905;26;20290;-67
2024/04/23 05:09:51;;;;;;;12.00;7.93;;;1.60;94.00;;;;;;5426595;26;20853;-67
2024/04/23 05:12:16;;;;;;;12.70;8.17;;;1.70;94.10;;;;;;5468229;26;20262;-67
2024/04/23 05:14:42;;;;;;;10.60;7.53;;;1.70;94.00;;;;;;5429497;26;20243;-67
2024/04/23 05:17:08;;;;;;;11.70;8.10;;;1.80;94.60;;;;;;5465206;26;20726;-65
2024/04/23 05:19:33;;;;;;;13.00;8.17;;;1.80;94.40;;;;;;5457220;26;22233;-65
2024/04/23 05:21:59;;;;;;;12.83;8.37;;;1.90;93.70;;;;;;5464670;26;20567;-65
2024/04/23 05:24:25;;;;;;;14.73;8.53;;;1.90;93.00;;;;;;5465037;26;20344;-65
2024/04/23 05:26:50;;;;;;;18.20;8.93;;;1.90;92.90;;;;;;5458925;26;20219;-65
2024/04/23 05:29:16;;;;;;;15.00;8.83;;;2.00;93.10;;;;;;5433055;26;20234;-66
2024/04/23 05:34:26;;;;;;;16.03;8.13;;;2.10;93.00;;;;;;5472358;26;20254;-65
2024/04/23 05:36:51;;;;;;;11.37;8.10;;;2.10;93.20;;;;;;5454560;26;20446;-65
2024/04/23 05:39:17;;;;;;;14.40;9.20;;;2.20;93.00;;;;;;5469273;26;20236;-65
2024/04/23 05:41:42;;;;;;;11.27;8.30;;;2.20;93.10;;;;;;5447854;26;20788;-65
2024/04/23 05:44:08;;;;;;;12.93;8.10;;;2.30;92.00;;;;;;5458050;26;20263;-65
2024/04/23 05:46:34;;;;;;;10.87;7.50;;;2.30;91.00;;;;;;5474936;26;20729;-66
2024/04/23 05:49:37;;;;;;;12.30;8.30;;;2.30;91.00;;;;;;5453812;26;20248;-65
2024/04/23 05:52:40;;;;;;;11.93;7.10;;;2.30;91.00;;;;;;5455012;26;20609;-65
2024/04/23 05:55:31;;;;;;;12.17;7.77;;;2.40;90.50;;;;;;5449458;26;20504;-65
2024/04/23 05:57:57;;;;;;;11.27;7.93;;;2.40;89.60;;;;;;5425225;26;20457;-65
2024/04/23 06:00:23;;;;;;;15.10;8.93;;;2.50;88.40;;;;;;5462231;26;20436;-65
2024/04/23 06:02:49;;;;;;;12.20;7.80;;;2.50;87.00;;;;;;5424745;26;20258;-64
2024/04/23 06:05:14;;;;;;;12.87;7.60;;;2.50;84.70;;;;;;5442904;26;20475;-65
2024/04/23 06:07:40;;;;;;;12.47;7.67;;;2.60;85.30;;;;;;5451843;26;20226;-65
2024/04/23 06:10:06;;;;;;;13.93;8.77;;;2.60;86.60;;;;;;5428111;26;20254;-65
2024/04/23 06:12:31;;;;;;;13.00;7.77;;;2.70;85.70;;;;;;5462525;26;20219;-65
2024/04/23 06:14:57;;;;;;;10.40;7.20;;;2.80;81.20;;;;;;5460805;26;20563;-65
2024/04/23 06:17:24;;;;;;;18.20;8.47;;;2.80;80.70;;;;;;5446539;26;20223;-65
2024/04/23 06:19:50;;;;;;;15.50;7.97;;;2.80;81.60;;;;;;5467951;26;20366;-64
2024/04/23 06:22:24;;;;;;;12.80;7.80;;;2.90;82.20;;;;;;5450742;26;20452;-65
2024/04/23 06:24:52;;;;;;;14.00;8.20;;;3.10;81.90;;;;;;5461214;26;20528;-64
2024/04/23 06:27:20;;;;;;;9.53;7.03;;;3.20;80.40;;;;;;5451538;26;20462;-64
2024/04/23 06:29:46;;;;;;;12.00;7.73;;;3.30;78.20;;;;;;5458007;26;20461;-66
2024/04/23 06:32:13;;;;;;;16.33;7.60;;;3.30;77.20;;;;;;5453989;26;21135;-64
2024/04/23 06:34:39;;;;;;;11.97;7.70;;;3.40;75.90;;;;;;5453652;26;20450;-66
2024/04/23 06:37:05;;;;;;;13.67;7.73;;;3.40;74.70;;;;;;5460206;26;20449;-65
2024/04/23 06:39:31;;;;;;;12.20;7.50;;;3.40;74.70;;;;;;5465748;26;20553;-66
2024/04/23 06:41:56;;;;;;;12.90;7.37;;;3.40;74.80;;;;;;5460395;26;20833;-65
2024/04/23 06:44:22;;;;;;;11.27;7.60;;;3.50;74.50;;;;;;5468547;26;20257;-65
2024/04/23 06:46:47;;;;;;;10.30;7.30;;;3.50;74.90;;;;;;5438806;26;20226;-66
2024/04/23 06:49:13;;;;;;;11.17;7.13;;;3.50;75.50;;;;;;5458379;26;20324;-66
2024/04/23 06:51:39;;;;;;;21.13;8.43;;;3.60;75.40;;;;;;5457396;26;20256;-66
2024/04/23 06:54:04;;;;;;;10.53;7.53;;;3.60;74.60;;;;;;5461482;26;20265;-66
2024/04/23 06:56:30;;;;;;;11.57;7.47;;;3.70;73.60;;;;;;5462459;26;20280;-65
2024/04/23 06:58:55;;;;;;;16.90;8.10;;;3.70;73.70;;;;;;5461452;26;20220;-66
2024/04/23 07:01:21;;;;;;;14.90;7.90;;;3.70;74.10;;;;;;5464481;26;20269;-66
2024/04/23 07:03:47;;;;;;;12.70;7.57;;;3.80;74.20;;;;;;5460153;26;20236;-66
2024/04/23 07:06:12;;;;;;;14.93;8.40;;;3.90;73.70;;;;;;5456113;26;20890;-65
2024/04/23 07:08:38;;;;;;;13.60;8.37;;;4.00;72.50;;;;;;5452373;26;20277;-65
2024/04/23 07:11:03;;;;;;;12.30;8.37;;;4.00;71.00;;;;;;5455902;26;20219;-65
2024/04/23 07:13:29;;;;;;;13.17;8.43;;;4.10;69.80;;;;;;5470861;26;20234;-65
2024/04/23 07:15:55;;;;;;;15.07;8.40;;;4.10;69.30;;;;;;5457314;26;20885;-65
2024/04/23 07:18:20;;;;;;;12.10;8.20;;;4.00;69.30;;;;;;5427932;26;20637;-65
2024/04/23 07:20:46;;;;;;;10.33;7.67;;;4.00;69.40;;;;;;5461374;26;20269;-65
2024/04/23 07:23:12;;;;;;;14.13;8.20;;;4.10;69.50;;;;;;5458220;26;20789;-65
2024/04/23 07:25:38;;;;;;;12.00;8.37;;;4.20;69.70;;;;;;5424604;26;20322;-65
2024/04/23 07:28:04;;;;;;;11.37;7.60;;;4.30;69.80;;;;;;5459918;26;20566;-65
2024/04/23 07:30:29;;;;;;;11.30;7.53;;;4.40;69.80;;;;;;5473101;26;20555;-66
2024/04/23 07:32:56;;;;;;;13.63;8.27;;;4.40;68.50;;;;;;5472221;26;20498;-65
2024/04/23 07:35:22;;;;;;;15.23;9.60;;;4.50;68.50;;;;;;5469659;26;20222;-67
2024/04/23 07:37:48;;;;;;;14.73;8.20;;;4.50;67.90;;;;;;5449186;26;21051;-66
2024/04/23 07:40:13;;;;;;;13.97;8.13;;;4.70;67.50;;;;;;5459557;26;20508;-66
2024/04/23 07:42:39;;;;;;;14.47;9.47;;;4.80;67.20;;;;;;5466382;26;20221;-66
2024/04/23 07:45:05;;;;;;;13.80;7.50;;;4.80;66.50;;;;;;5459720;26;20236;-66
2024/04/23 07:47:32;;;;;;;16.33;8.57;;;4.80;65.60;;;;;;5471692;26;20281;-65
2024/04/23 07:49:58;;;;;;;14.40;9.10;;;4.80;65.50;;;;;;5472847;26;20252;-65
2024/04/23 07:52:24;;;;;;;11.10;7.83;;;4.80;65.80;;;;;;5470976;26;20814;-65
2024/04/23 07:54:51;;;;;;;11.83;7.87;;;4.90;66.30;;;;;;5461979;26;20247;-64
2024/04/23 07:57:19;;;;;;;11.87;7.83;;;4.90;66.30;;;;;;5475659;26;20305;-65
2024/04/23 07:59:46;;;;;;;13.23;7.77;;;5.00;66.00;;;;;;5465703;26;20463;-65
2024/04/23 08:02:11;;;;;;;15.47;7.40;;;5.10;65.60;;;;;;5457746;26;20461;-65
2024/04/23 08:04:37;;;;;;;13.73;8.83;;;5.10;64.90;;;;;;5463067;26;20563;-66
2024/04/23 08:07:03;;;;;;;10.87;7.70;;;5.10;64.50;;;;;;5461014;26;20308;-64
2024/04/23 08:09:29;;;;;;;13.10;7.90;;;5.20;64.30;;;;;;5464624;26;20239;-71
2024/04/23 08:11:55;;;;;;;9.57;6.67;;;5.10;63.80;;;;;;5467453;26;20938;-65
2024/04/23 08:14:20;;;;;;;11.47;6.57;;;5.20;63.50;;;;;;5468613;26;20269;-66
2024/04/23 08:16:48;;;;;;;8.90;6.50;;;5.20;63.80;;;;;;5465882;26;20261;-65
2024/04/23 08:19:14;;;;;;;11.40;7.30;;;5.20;63.50;;;;;;5474712;26;20823;-66
2024/04/23 08:21:40;;;;;;;10.47;7.57;;;5.20;63.00;;;;;;5464782;26;20448;-66
2024/04/23 08:24:07;;;;;;;10.73;6.77;;;5.30;63.30;;;;;;5472119;26;20519;-66
2024/04/23 08:26:32;;;;;;;11.10;7.10;;;5.40;63.50;;;;;;5460982;26;20235;-64
2024/04/23 08:28:58;;;;;;;16.20;7.40;;;5.40;62.70;;;;;;5437037;26;20457;-61
2024/04/23 08:31:24;;;;;;;16.83;7.67;;;5.60;63.20;;;;;;5467358;26;20281;-64
2024/04/23 08:33:50;;;;;;;17.10;7.90;;;5.70;64.00;;;;;;5460454;26;20928;-65
2024/04/23 08:36:16;;;;;;;11.67;7.17;;;5.90;64.60;;;;;;5459080;26;20531;-66
2024/04/23 08:38:41;;;;;;;10.00;6.57;;;6.20;63.90;;;;;;5433950;26;20247;-66
2024/04/23 08:41:13;;;;;;;11.90;7.00;;;6.50;63.60;;;;;;5462899;26;20310;-66
2024/04/23 08:44:00;;;;;;;9.57;6.67;;;6.90;63.20;;;;;;5464015;26;20339;-66
2024/04/23 08:46:25;;;;;;;8.10;5.83;;;7.20;62.80;;;;;;5466663;26;20550;-66
2024/04/23 08:48:53;;;;;;;14.40;6.60;;;7.30;60.40;;;;;;5466042;26;20448;-65
2024/04/23 08:51:20;;;;;;;9.20;6.37;;;7.40;58.40;;;;;;5471066;26;20488;-66
2024/04/23 08:53:48;;;;;;;8.23;5.87;;;7.50;57.30;;;;;;5467859;26;20487;-66
2024/04/23 08:56:25;;;;;;;10.00;7.20;;;7.60;57.10;;;;;;5458306;26;21152;-66
2024/04/23 08:58:52;;;;;;;10.57;6.70;;;7.60;56.00;;;;;;5464974;26;21101;-65
2024/04/23 09:01:32;;;;;;;10.40;6.13;;;7.50;55.60;;;;;;5448726;26;20540;-66
2024/04/23 09:04:01;;;;;;;8.70;6.50;;;7.40;55.50;;;;;;5457585;26;20453;-66
2024/04/23 09:06:28;;;;;;;8.70;6.27;;;7.20;54.80;;;;;;5459048;26;20501;-66
2024/04/23 09:08:54;;;;;;;9.97;6.57;;;7.00;54.90;;;;;;5474333;26;20516;-66
2024/04/23 09:11:20;;;;;;;9.57;6.50;;;6.90;55.30;;;;;;5480452;26;20504;-66
2024/04/23 09:13:46;;;;;;;8.57;5.80;;;6.90;55.60;;;;;;5438508;26;20556;-66
2024/04/23 09:16:12;;;;;;;7.40;5.60;;;6.80;55.80;;;;;;5468681;26;20469;-66
2024/04/23 09:18:37;;;;;;;7.17;5.90;;;6.80;55.60;;;;;;5472657;26;20851;-65
2024/04/23 09:21:04;;;;;;;8.40;5.83;;;6.70;55.60;;;;;;5465804;26;20219;-66
2024/04/23 09:23:33;;;;;;;7.33;5.87;;;6.70;55.50;;;;;;5465531;26;20647;-66
2024/04/23 09:25:59;;;;;;;10.37;7.17;;;6.60;55.40;;;;;;5463460;26;20449;-66
2024/04/23 09:28:25;;;;;;;10.47;6.00;;;6.40;55.50;;;;;;5458332;26;20978;-66
2024/04/23 09:30:51;;;;;;;11.87;6.50;;;6.30;55.50;;;;;;5471162;26;20489;-64
2024/04/23 09:33:23;;;;;;;9.50;6.20;;;6.30;55.90;;;;;;5465116;26;20762;-66
2024/04/23 09:36:05;;;;;;;11.97;6.80;;;6.30;56.80;;;;;;5458444;26;20449;-66
2024/04/23 09:38:40;;;;;;;9.10;6.30;;;6.50;58.30;;;;;;5451889;26;20544;-65
2024/04/23 09:41:08;;;;;;;9.83;7.13;;;6.60;58.20;;;;;;5462272;26;20520;-65
2024/04/23 09:43:35;;;;;;;10.73;6.90;;;6.70;58.50;;;;;;5440225;26;20560;-66
2024/04/23 09:46:02;;;;;;;10.30;6.50;;;6.70;58.20;;;;;;5470835;26;20564;-66
2024/04/23 09:48:31;;;;;;;9.10;6.50;;;6.70;57.50;;;;;;5460278;26;21031;-66
2024/04/23 09:51:05;;;;;;;10.50;7.30;;;6.70;57.50;;;;;;5459746;26;20441;-65
2024/04/23 09:53:36;;;;;;;8.93;6.27;;;6.60;57.70;;;;;;5464222;26;20517;-67
2024/04/23 09:56:13;;;;;;;9.43;6.70;;;6.60;57.80;;;;;;5428046;26;20473;-66
2024/04/23 09:58:39;;;;;;;9.57;7.00;;;6.50;57.40;;;;;;5452899;26;20468;-66
2024/04/23 10:01:06;;;;;;;10.43;7.30;;;6.40;57.90;;;;;;5456557;26;20454;-66
2024/04/23 10:03:34;;;;;;;9.63;6.80;;;6.40;58.20;;;;;;5453276;26;20517;-66
2024/04/23 10:06:04;;;;;;;15.50;8.70;;;6.40;58.60;;;;;;5457956;26;20523;-65
2024/04/23 10:09:00;;;;;;;7.80;6.37;;;6.50;58.90;;;;;;5472230;26;20537;-66
2024/04/23 10:11:31;;;;;;;8.10;6.13;;;6.60;57.80;;;;;;5453523;26;20547;-66
2024/04/23 10:14:22;;;;;;;7.60;6.40;;;6.60;57.70;;;;;;5456993;26;20517;-66
2024/04/23 10:17:14;;;;;;;8.50;6.50;;;6.80;59.20;;;;;;5464197;26;21315;-66
2024/04/23 10:19:44;;;;;;;11.10;6.60;;;6.90;57.80;;;;;;5460143;26;20459;-66
2024/04/23 10:22:12;;;;;;;8.63;6.30;;;6.80;56.60;;;;;;5469844;26;21075;-66
2024/04/23 10:24:38;;;;;;;10.03;6.50;;;6.70;56.70;;;;;;5457996;26;20569;-66
2024/04/23 10:27:07;;;;;;;12.40;6.70;;;6.60;57.00;;;;;;5466080;26;20471;-65
2024/04/23 10:29:33;;;;;;;9.20;5.93;;;6.60;57.60;;;;;;5449650;26;20457;-66
2024/04/23 10:32:00;;;;;;;11.83;6.13;;;6.60;57.40;;;;;;5435428;26;20453;-66
2024/04/23 10:34:29;;;;;;;9.60;6.60;;;6.60;56.90;;;;;;5454234;26;20534;-66
2024/04/23 10:36:55;;;;;;;11.10;6.10;;;6.50;56.60;;;;;;5460621;26;20453;-65
2024/04/23 10:39:22;;;;;;;10.07;6.63;;;6.40;56.70;;;;;;5465297;26;20539;-66
2024/04/23 10:41:48;;;;;;;9.70;6.93;;;6.30;56.70;;;;;;5433245;26;20927;-60
2024/04/23 10:44:16;;;;;;;8.27;6.37;;;6.30;57.70;;;;;;5439170;26;20579;-63
2024/04/23 10:46:43;;;;;;;10.97;6.97;;;6.30;57.90;;;;;;5456805;26;20268;-63
2024/04/23 10:49:15;;;;;;;10.43;6.10;;;6.30;58.00;;;;;;5436084;26;20461;-63
2024/04/23 10:51:44;;;;;;;8.63;6.30;;;6.30;58.00;;;;;;5467167;26;20501;-64
2024/04/23 10:54:14;;;;;;;8.30;6.23;;;6.30;58.30;;;;;;5470213;26;21264;-64
2024/04/23 10:56:40;;;;;;;8.77;6.43;;;6.30;57.90;;;;;;5458989;26;20597;-64
2024/04/23 10:59:17;;;;;;;10.93;7.30;;;6.40;58.20;;;;;;5466013;26;20456;-64
2024/04/23 11:01:56;;;;;;;7.63;6.30;;;6.50;58.30;;;;;;5454921;26;20528;-64
2024/04/23 11:04:49;;;;;;;11.57;6.90;;;6.50;58.10;;;;;;5478736;26;20492;-63
2024/04/23 11:07:26;;;;;;;12.83;7.23;;;6.60;57.70;;;;;;5447469;26;20456;-64
2024/04/23 11:09:57;;;;;;;10.10;6.50;;;6.60;57.70;;;;;;5422454;26;20509;-62
2024/04/23 11:12:24;;;;;;;11.50;7.60;;;6.50;57.60;;;;;;5457476;26;20540;-64
2024/04/23 11:14:51;;;;;;;9.00;6.50;;;6.50;58.10;;;;;;5453502;26;20572;-63
2024/04/23 11:17:17;;;;;;;9.77;6.83;;;6.50;58.10;;;;;;5430523;26;20852;-64
2024/04/23 11:19:54;;;;;;;9.20;6.33;;;6.40;57.50;;;;;;5450412;26;20463;-63
2024/04/23 11:22:43;;;;;;;11.53;6.30;;;6.50;57.60;;;;;;5443932;26;20231;-64
2024/04/23 11:25:15;;;;;;;9.10;6.10;;;6.50;56.60;;;;;;5469315;26;20520;-63
2024/04/23 11:27:42;;;;;;;12.20;6.30;;;6.50;56.80;;;;;;5462868;26;20455;-63
2024/04/23 11:30:13;;;;;;;10.47;6.63;;;6.50;57.00;;;;;;5441541;26;21242;-64
2024/04/23 11:32:39;;;;;;;10.40;6.80;;;6.50;56.50;;;;;;5459340;26;20453;-64
2024/04/23 11:35:09;;;;;;;9.17;6.20;;;6.50;56.20;;;;;;5468509;26;20496;-64
2024/04/23 11:37:35;;;;;;;9.50;6.30;;;6.40;56.20;;;;;;5471753;26;20515;-64
2024/04/23 11:40:02;;;;;;;8.40;6.60;;;6.40;56.30;;;;;;5464997;26;21032;-64
2024/04/23 11:42:28;;;;;;;12.87;6.50;;;6.40;56.10;;;;;;5467355;26;20219;-64
2024/04/23 11:44:57;;;;;;;8.80;6.20;;;6.40;56.40;;;;;;5460972;26;20511;-64
2024/04/23 11:47:28;;;;;;;10.17;6.50;;;6.50;57.00;;;;;;5456733;26;20569;-64
2024/04/23 11:49:54;;;;;;;7.90;6.30;;;6.70;57.00;;;;;;5471331;26;20464;-61
2024/04/23 11:52:23;;;;;;;8.90;6.70;;;6.90;56.50;;;;;;5444887;26;20467;-61
2024/04/23 11:54:50;;;;;;;11.07;7.13;;;7.20;56.40;;;;;;5458810;26;20517;-66
2024/04/23 11:57:18;;;;;;;7.37;6.23;;;7.40;56.10;;;;;;5433069;26;21275;-66
2024/04/23 11:59:49;;;;;;;9.73;6.57;;;7.60;56.10;;;;;;5476607;26;21176;-66
2024/04/23 12:02:15;;;;;;;8.63;6.70;;;7.80;55.70;;;;;;5470276;26;20532;-66
2024/04/23 12:04:42;;;;;;;6.27;5.60;;;7.80;54.70;;;;;;5465540;26;20464;-66
2024/04/23 12:07:11;;;;;;;10.97;6.20;;;7.60;53.90;;;;;;5462920;26;20562;-66
2024/04/23 12:09:36;;;;;;;10.67;6.40;;;7.40;53.50;;;;;;5439583;26;20519;-66
2024/04/23 12:12:02;;;;;;;7.77;6.00;;;7.30;53.80;;;;;;5471025;26;20445;-67
2024/04/23 12:14:30;;;;;;;9.43;5.70;;;7.20;54.20;;;;;;5472848;26;20230;-67
2024/04/23 12:16:56;;;;;;;7.37;5.50;;;7.10;54.30;;;;;;5458216;26;20290;-66
2024/04/23 12:19:22;;;;;;;8.63;5.40;;;6.90;54.10;;;;;;5437835;26;20451;-64
2024/04/23 12:21:48;;;;;;;8.20;6.00;;;6.90;54.30;;;;;;5435579;26;20794;-62
2024/04/23 12:24:17;;;;;;;9.83;5.80;;;6.90;54.70;;;;;;5450157;26;20504;-62
2024/04/23 12:26:43;;;;;;;10.00;6.53;;;6.90;54.80;;;;;;5455131;26;20558;-63
2024/04/23 12:29:10;;;;;;;10.40;6.30;;;6.90;54.60;;;;;;5450786;26;20498;-65
2024/04/23 12:31:36;;;;;;;7.50;5.77;;;6.90;54.70;;;;;;5464428;26;20537;-62
2024/04/23 12:34:02;;;;;;;7.83;5.90;;;6.80;55.00;;;;;;5472205;26;20990;-63
2024/04/23 12:36:27;;;;;;;10.60;6.00;;;6.70;54.80;;;;;;5458788;26;20500;-63
2024/04/23 12:38:53;;;;;;;6.23;5.17;;;6.70;54.50;;;;;;5458804;26;20838;-62
2024/04/23 12:41:20;;;;;;;9.77;6.53;;;6.60;55.00;;;;;;5441445;26;20231;-63
2024/04/23 12:43:50;;;;;;;8.73;6.40;;;6.50;55.20;;;;;;5462862;26;20285;-63
2024/04/23 12:46:17;;;;;;;8.40;5.87;;;6.50;55.20;;;;;;5414736;26;20501;-63
2024/04/23 12:48:43;;;;;;;9.60;6.20;;;6.50;55.20;;;;;;5467685;26;21436;-63
2024/04/23 12:51:10;;;;;;;9.73;5.63;;;6.50;54.90;;;;;;5461612;26;20594;-63
2024/04/23 12:53:36;;;;;;;8.20;5.50;;;6.50;54.60;;;;;;5462342;26;20544;-63
2024/04/23 12:56:02;;;;;;;7.73;5.70;;;6.50;54.90;;;;;;5429633;26;20453;-63
2024/04/23 12:58:30;;;;;;;8.10;6.37;;;6.50;55.00;;;;;;5419530;26;20497;-63
2024/04/23 13:00:56;;;;;;;8.77;6.03;;;6.40;54.90;;;;;;5459286;26;20520;-62